Etusivu
METAR-TAF:

METAR-TAF

Lentoasemat :

Camagüey, Kuuba

Leveyspiiri: 21-25N, Pituuspiiri: 077-51W, korkeus merenpinnasta: 122 m

Tämänhetkinen sää

Tämä raportti tehtiin 38 minuuttia sitten, kello 10.50 UTC
Tuuli 6 kn pohjoisesta/koillisesta
Lämpötila 18°C
Kosteus 94%
Ilmanpaine 1019 hPa
Näkyvyys: 9000 m
selkeää

METAR: MUCM 061050Z 02006KT 9000 SKC 18/17 Q1019

Aika: 06:28 (11:28 UTC)

Sääennuste

Tämä raportti tehtiin 6 tuntia ja 28 minuuttia sitten, kello 05.00 UTC
Ennuste voimassa 06. päivästä klo 06 UTC - 07. päivään klo 06 UTC
Tuuli 3 kn eri suunnista
Näkyvyys: 9000 m
Hajanaisia pilviä 2000 ft:n korkeudessa
Tulossa
06. päivästä klo 15 UTC - 06. päivään klo 17 UTC
Tuuli 10 kn idästä/koillisesta
Tulossa
07. päivästä klo 01 UTC - 07. päivään klo 03 UTC
Tuuli 3 kn eri suunnista

TAF: MUCM 060500Z 0606/0706 VRB03KT 9000 SCT020 BECMG 0615/0617 06010KT BECMG 0701/0703 VRB03KT

Säähavainnot ja -ennusteet yli 4000 lentoasemalta (METAR- ja TAF-raportit).

Käytössä olevat sääasemat on merkitty karttaan keltaisilla ja punaisilla pisteillä.

Aseta hiiri pisteen päälle nähdäksesi sääaseman nimen.

Klikkaa sitten nähdäksesi säähavainnot ja -ennusteet.

Kartan vaihtaminen: klikkaa mustalla rastilla varustettuja vihreitä pisteitä, niin voit zoomata sisään; viivalla varustettua vihreää pistettä, niin voit zoomata ulos tai vihreitä nuolia, niin pääset viereisille kartoille.


METAR-TAF: